sensor_id;sensor_type;location;lat;lon;timestamp;pressure;altitude;pressure_sealevel;temperature;humidity
44734;BME280;30462;52.446;-1.930;2023-04-27T00:00:18;100398.3398;;;;
44734;BME280;30462;52.446;-1.930;2023-04-27T00:01:18;100396.625;;;;
44734;BME280;30462;52.446;-1.930;2023-04-27T00:02:18;100395.418;;;;
44734;BME280;30462;52.446;-1.930;2023-04-27T00:03:18;100396.1523;;;;
44734;BME280;30462;52.446;-1.930;2023-04-27T00:04:18;100393.1953;;;;
44734;BME280;30462;52.446;-1.930;2023-04-27T00:05:17;100391.168;;;;
44734;BME280;30462;52.446;-1.930;2023-04-27T00:06:17;100389.3398;;;;
44734;BME280;30462;52.446;-1.930;2023-04-27T00:07:18;100391.9688;;;;
44734;BME280;30462;52.446;-1.930;2023-04-27T00:08:18;100389.7969;;;;
44734;BME280;30462;52.446;-1.930;2023-04-27T00:09:18;100388.832;;;;
44734;BME280;30462;52.446;-1.930;2023-04-27T00:10:18;100388.3242;;;;
44734;BME280;30462;52.446;-1.930;2023-04-27T00:11:17;100387.832;;;;
44734;BME280;30462;52.446;-1.930;2023-04-27T00:12:17;100386.5117;;;;
44734;BME280;30462;52.446;-1.930;2023-04-27T00:13:18;100384.793;;;;
44734;BME280;30462;52.446;-1.930;2023-04-27T00:14:18;100379.0938;;;;
44734;BME280;30462;52.446;-1.930;2023-04-27T00:15:17;100375.043;;;;
44734;BME280;30462;52.446;-1.930;2023-04-27T00:16:18;100375.8398;;;;
44734;BME280;30462;52.446;-1.930;2023-04-27T00:17:18;100374.5625;;;;
44734;BME280;30462;52.446;-1.930;2023-04-27T00:18:18;100370.5781;;;;
44734;BME280;30462;52.446;-1.930;2023-04-27T00:19:18;100372.6523;;;;
44734;BME280;30462;52.446;-1.930;2023-04-27T00:20:18;100369.8555;;;;
44734;BME280;30462;52.446;-1.930;2023-04-27T00:21:18;100371.8594;;;;
44734;BME280;30462;52.446;-1.930;2023-04-27T00:22:18;100373.7461;;;;
44734;BME280;30462;52.446;-1.930;2023-04-27T00:23:18;100371.7617;;;;
44734;BME280;30462;52.446;-1.930;2023-04-27T00:24:18;100369.1367;;;;
44734;BME280;30462;52.446;-1.930;2023-04-27T00:25:18;100367;;;;
44734;BME280;30462;52.446;-1.930;2023-04-27T00:26:18;100367.6367;;;;
44734;BME280;30462;52.446;-1.930;2023-04-27T00:27:18;100365.5742;;;;
44734;BME280;30462;52.446;-1.930;2023-04-27T00:28:18;100361.5586;;;;
44734;BME280;30462;52.446;-1.930;2023-04-27T00:29:18;100364.1016;;;;
44734;BME280;30462;52.446;-1.930;2023-04-27T00:30:18;100362.0625;;;;
44734;BME280;30462;52.446;-1.930;2023-04-27T00:31:18;100361.9336;;;;
44734;BME280;30462;52.446;-1.930;2023-04-27T00:32:18;100360.3711;;;;
44734;BME280;30462;52.446;-1.930;2023-04-27T00:33:18;100361.8906;;;;
44734;BME280;30462;52.446;-1.930;2023-04-27T00:34:18;100363.0938;;;;
44734;BME280;30462;52.446;-1.930;2023-04-27T00:35:18;100363.5703;;;;
44734;BME280;30462;52.446;-1.930;2023-04-27T00:36:18;100366.3516;;;;
44734;BME280;30462;52.446;-1.930;2023-04-27T00:37:18;100360.9961;;;;
44734;BME280;30462;52.446;-1.930;2023-04-27T00:38:19;100362.5234;;;;
44734;BME280;30462;52.446;-1.930;2023-04-27T00:39:17;100358.1211;;;;
44734;BME280;30462;52.446;-1.930;2023-04-27T00:40:19;100362.4727;;;;
44734;BME280;30462;52.446;-1.930;2023-04-27T00:41:18;100355.4648;;;;
44734;BME280;30462;52.446;-1.930;2023-04-27T00:42:18;100354.3047;;;;
44734;BME280;30462;52.446;-1.930;2023-04-27T00:43:18;100352.5898;;;;
44734;BME280;30462;52.446;-1.930;2023-04-27T00:45:18;100353.5664;;;;
44734;BME280;30462;52.446;-1.930;2023-04-27T00:46:17;100352.7031;;;;
44734;BME280;30462;52.446;-1.930;2023-04-27T00:47:18;100352.8711;;;;
44734;BME280;30462;52.446;-1.930;2023-04-27T00:48:18;100352.2344;;;;
44734;BME280;30462;52.446;-1.930;2023-04-27T00:49:18;100352.3789;;;;
44734;BME280;30462;52.446;-1.930;2023-04-27T00:50:18;100352.5117;;;;
44734;BME280;30462;52.446;-1.930;2023-04-27T00:51:18;100352.4453;;;;
44734;BME280;30462;52.446;-1.930;2023-04-27T00:52:18;100353.6875;;;;
44734;BME280;30462;52.446;-1.930;2023-04-27T00:53:18;100356.5469;;;;
44734;BME280;30462;52.446;-1.930;2023-04-27T00:54:18;100352.2188;;;;
44734;BME280;30462;52.446;-1.930;2023-04-27T00:55:18;100354.2578;;;;
44734;BME280;30462;52.446;-1.930;2023-04-27T00:56:18;100355.9727;;;;
44734;BME280;30462;52.446;-1.930;2023-04-27T00:57:18;100351.8711;;;;
44734;BME280;30462;52.446;-1.930;2023-04-27T00:58:18;100355.7734;;;;
44734;BME280;30462;52.446;-1.930;2023-04-27T00:59:18;100354.3867;;;;
44734;BME280;30462;52.446;-1.930;2023-04-27T01:00:18;100353.7344;;;;
44734;BME280;30462;52.446;-1.930;2023-04-27T01:01:18;100352.918;;;;
44734;BME280;30462;52.446;-1.930;2023-04-27T01:02:18;100359.1523;;;;
44734;BME280;30462;52.446;-1.930;2023-04-27T01:03:18;100360.2969;;;;
44734;BME280;30462;52.446;-1.930;2023-04-27T01:04:18;100358.8438;;;;
44734;BME280;30462;52.446;-1.930;2023-04-27T01:05:18;100360.3906;;;;
44734;BME280;30462;52.446;-1.930;2023-04-27T01:06:18;100362.5625;;;;
44734;BME280;30462;52.446;-1.930;2023-04-27T01:07:18;100363.3672;;;;
44734;BME280;30462;52.446;-1.930;2023-04-27T01:08:18;100365.4063;;;;
44734;BME280;30462;52.446;-1.930;2023-04-27T01:09:18;100364.0352;;;;
44734;BME280;30462;52.446;-1.930;2023-04-27T01:10:18;100364.9023;;;;
44734;BME280;30462;52.446;-1.930;2023-04-27T01:11:18;100364.5117;;;;
44734;BME280;30462;52.446;-1.930;2023-04-27T01:12:18;100364.3125;;;;
44734;BME280;30462;52.446;-1.930;2023-04-27T01:13:18;100362.5156;;;;
44734;BME280;30462;52.446;-1.930;2023-04-27T01:14:18;100363.0547;;;;
44734;BME280;30462;52.446;-1.930;2023-04-27T01:15:17;100361.6406;;;;
44734;BME280;30462;52.446;-1.930;2023-04-27T01:16:18;100357.6875;;;;
44734;BME280;30462;52.446;-1.930;2023-04-27T01:17:18;100359.6836;;;;
44734;BME280;30462;52.446;-1.930;2023-04-27T01:18:18;100355.6992;;;;
44734;BME280;30462;52.446;-1.930;2023-04-27T01:19:18;100357.0039;;;;
44734;BME280;30462;52.446;-1.930;2023-04-27T01:20:18;100357.4961;;;;
44734;BME280;30462;52.446;-1.930;2023-04-27T01:21:18;100356.9063;;;;
44734;BME280;30462;52.446;-1.930;2023-04-27T01:22:18;100354.9609;;;;
44734;BME280;30462;52.446;-1.930;2023-04-27T01:23:17;100357.9141;;;;
44734;BME280;30462;52.446;-1.930;2023-04-27T01:24:18;100358.0273;;;;
44734;BME280;30462;52.446;-1.930;2023-04-27T01:25:18;100357.6563;;;;
44734;BME280;30462;52.446;-1.930;2023-04-27T01:26:18;100359.0117;;;;
44734;BME280;30462;52.446;-1.930;2023-04-27T01:27:18;100357.6758;;;;
44734;BME280;30462;52.446;-1.930;2023-04-27T01:28:17;100357.3945;;;;
44734;BME280;30462;52.446;-1.930;2023-04-27T01:29:17;100359.7461;;;;
44734;BME280;30462;52.446;-1.930;2023-04-27T01:30:18;100359.082;;;;
44734;BME280;30462;52.446;-1.930;2023-04-27T01:31:18;100362.3477;;;;
44734;BME280;30462;52.446;-1.930;2023-04-27T01:32:18;100364.5039;;;;
44734;BME280;30462;52.446;-1.930;2023-04-27T01:33:18;100366.2188;;;;
44734;BME280;30462;52.446;-1.930;2023-04-27T01:34:18;100366.2188;;;;
44734;BME280;30462;52.446;-1.930;2023-04-27T01:35:18;100367.3438;;;;
44734;BME280;30462;52.446;-1.930;2023-04-27T01:36:18;100367.7852;;;;
44734;BME280;30462;52.446;-1.930;2023-04-27T01:37:18;100369.207;;;;
44734;BME280;30462;52.446;-1.930;2023-04-27T01:38:18;100368.293;;;;
44734;BME280;30462;52.446;-1.930;2023-04-27T01:39:18;100370.5469;;;;
44734;BME280;30462;52.446;-1.930;2023-04-27T01:40:18;100367.1836;;;;
44734;BME280;30462;52.446;-1.930;2023-04-27T01:41:18;100364.7656;;;;
44734;BME280;30462;52.446;-1.930;2023-04-27T01:42:18;100365.1094;;;;
44734;BME280;30462;52.446;-1.930;2023-04-27T01:43:18;100365.1875;;;;
44734;BME280;30462;52.446;-1.930;2023-04-27T01:44:18;100362.707;;;;
44734;BME280;30462;52.446;-1.930;2023-04-27T01:45:18;100359.0156;;;;
44734;BME280;30462;52.446;-1.930;2023-04-27T01:46:18;100364.0117;;;;
44734;BME280;30462;52.446;-1.930;2023-04-27T01:47:19;100361.4258;;;;
44734;BME280;30462;52.446;-1.930;2023-04-27T01:48:18;100356.9648;;;;
44734;BME280;30462;52.446;-1.930;2023-04-27T01:49:18;100360.0664;;;;
44734;BME280;30462;52.446;-1.930;2023-04-27T01:50:18;100356.082;;;;
44734;BME280;30462;52.446;-1.930;2023-04-27T01:51:18;100355.3672;;;;
44734;BME280;30462;52.446;-1.930;2023-04-27T01:52:18;100356.0859;;;;
44734;BME280;30462;52.446;-1.930;2023-04-27T01:53:18;100358.5859;;;;
44734;BME280;30462;52.446;-1.930;2023-04-27T01:54:18;100358.3086;;;;
44734;BME280;30462;52.446;-1.930;2023-04-27T01:55:18;100358.5898;;;;
44734;BME280;30462;52.446;-1.930;2023-04-27T01:56:18;100358.4727;;;;
44734;BME280;30462;52.446;-1.930;2023-04-27T01:57:18;100356.8711;;;;
44734;BME280;30462;52.446;-1.930;2023-04-27T01:58:18;100354.3242;;;;
44734;BME280;30462;52.446;-1.930;2023-04-27T01:59:18;100357.5898;;;;
44734;BME280;30462;52.446;-1.930;2023-04-27T02:00:18;100359.6797;;;;
44734;BME280;30462;52.446;-1.930;2023-04-27T02:01:18;100357.9336;;;;
44734;BME280;30462;52.446;-1.930;2023-04-27T02:02:18;100357.1641;;;;
44734;BME280;30462;52.446;-1.930;2023-04-27T02:03:17;100359.0547;;;;
44734;BME280;30462;52.446;-1.930;2023-04-27T02:04:18;100358.5313;;;;
44734;BME280;30462;52.446;-1.930;2023-04-27T02:05:18;100358.6992;;;;
44734;BME280;30462;52.446;-1.930;2023-04-27T02:06:18;100359.2969;;;;
44734;BME280;30462;52.446;-1.930;2023-04-27T02:07:18;100360.9141;;;;
44734;BME280;30462;52.446;-1.930;2023-04-27T02:08:18;100357.832;;;;
44734;BME280;30462;52.446;-1.930;2023-04-27T02:09:18;100361.207;;;;
44734;BME280;30462;52.446;-1.930;2023-04-27T02:10:18;100358.3008;;;;
44734;BME280;30462;52.446;-1.930;2023-04-27T02:11:18;100364.5938;;;;
44734;BME280;30462;52.446;-1.930;2023-04-27T02:12:18;100363.0703;;;;
44734;BME280;30462;52.446;-1.930;2023-04-27T02:13:18;100362.3516;;;;
44734;BME280;30462;52.446;-1.930;2023-04-27T02:14:18;100363.8867;;;;
44734;BME280;30462;52.446;-1.930;2023-04-27T02:15:18;100361.8008;;;;
44734;BME280;30462;52.446;-1.930;2023-04-27T02:16:18;100363.0469;;;;
44734;BME280;30462;52.446;-1.930;2023-04-27T02:17:17;100361.3008;;;;
44734;BME280;30462;52.446;-1.930;2023-04-27T02:18:18;100358.8398;;;;
44734;BME280;30462;52.446;-1.930;2023-04-27T02:19:18;100358.0742;;;;
44734;BME280;30462;52.446;-1.930;2023-04-27T02:20:18;100358.7109;;;;
44734;BME280;30462;52.446;-1.930;2023-04-27T02:21:18;100359.3477;;;;
44734;BME280;30462;52.446;-1.930;2023-04-27T02:22:18;100355.9336;;;;
44734;BME280;30462;52.446;-1.930;2023-04-27T02:23:18;100350.9961;;;;
44734;BME280;30462;52.446;-1.930;2023-04-27T02:24:18;100357.7891;;;;
44734;BME280;30462;52.446;-1.930;2023-04-27T02:25:18;100360.0469;;;;
44734;BME280;30462;52.446;-1.930;2023-04-27T02:26:20;100358.4102;;;;
44734;BME280;30462;52.446;-1.930;2023-04-27T02:27:18;100357.6758;;;;
44734;BME280;30462;52.446;-1.930;2023-04-27T02:28:18;100356.3242;;;;
44734;BME280;30462;52.446;-1.930;2023-04-27T02:29:18;100350.6016;;;;
44734;BME280;30462;52.446;-1.930;2023-04-27T02:30:18;100348.3008;;;;
44734;BME280;30462;52.446;-1.930;2023-04-27T02:31:18;100350.3398;;;;
44734;BME280;30462;52.446;-1.930;2023-04-27T02:32:18;100350.1641;;;;
44734;BME280;30462;52.446;-1.930;2023-04-27T02:33:18;100346.0313;;;;
44734;BME280;30462;52.446;-1.930;2023-04-27T02:34:18;100352.3359;;;;
44734;BME280;30462;52.446;-1.930;2023-04-27T02:35:18;100347.3516;;;;
44734;BME280;30462;52.446;-1.930;2023-04-27T02:36:18;100351.0313;;;;
44734;BME280;30462;52.446;-1.930;2023-04-27T02:37:18;100356.8945;;;;
44734;BME280;30462;52.446;-1.930;2023-04-27T02:38:18;100355.5586;;;;
44734;BME280;30462;52.446;-1.930;2023-04-27T02:39:18;100352.0078;;;;
44734;BME280;30462;52.446;-1.930;2023-04-27T02:40:18;100354.2188;;;;
44734;BME280;30462;52.446;-1.930;2023-04-27T02:41:18;100354.3789;;;;
44734;BME280;30462;52.446;-1.930;2023-04-27T02:42:18;100349.2031;;;;
44734;BME280;30462;52.446;-1.930;2023-04-27T02:43:18;100351.457;;;;
44734;BME280;30462;52.446;-1.930;2023-04-27T02:44:17;100347.4844;;;;
44734;BME280;30462;52.446;-1.930;2023-04-27T02:45:18;100344.3164;;;;
44734;BME280;30462;52.446;-1.930;2023-04-27T02:46:18;100342.0781;;;;
44734;BME280;30462;52.446;-1.930;2023-04-27T02:47:18;100342.0781;;;;
44734;BME280;30462;52.446;-1.930;2023-04-27T02:48:18;100340.5117;;;;
44734;BME280;30462;52.446;-1.930;2023-04-27T02:49:18;100342.4258;;;;
44734;BME280;30462;52.446;-1.930;2023-04-27T02:50:18;100342.7344;;;;
44734;BME280;30462;52.446;-1.930;2023-04-27T02:51:18;100342.75;;;;
44734;BME280;30462;52.446;-1.930;2023-04-27T02:52:18;100340.4688;;;;
44734;BME280;30462;52.446;-1.930;2023-04-27T02:53:17;100341.1211;;;;
44734;BME280;30462;52.446;-1.930;2023-04-27T02:54:18;100335.9063;;;;
44734;BME280;30462;52.446;-1.930;2023-04-27T02:55:18;100333.7188;;;;
44734;BME280;30462;52.446;-1.930;2023-04-27T02:56:18;100336.1211;;;;
44734;BME280;30462;52.446;-1.930;2023-04-27T02:57:17;100335.0391;;;;
44734;BME280;30462;52.446;-1.930;2023-04-27T02:58:18;100332.8828;;;;
44734;BME280;30462;52.446;-1.930;2023-04-27T02:59:18;100332.7539;;;;
44734;BME280;30462;52.446;-1.930;2023-04-27T03:00:18;100329.9141;;;;
44734;BME280;30462;52.446;-1.930;2023-04-27T03:01:18;100331.4297;;;;
44734;BME280;30462;52.446;-1.930;2023-04-27T03:02:18;100333.6875;;;;
44734;BME280;30462;52.446;-1.930;2023-04-27T03:03:18;100335.0391;;;;
44734;BME280;30462;52.446;-1.930;2023-04-27T03:04:18;100332.7891;;;;
44734;BME280;30462;52.446;-1.930;2023-04-27T03:05:18;100336.5195;;;;
44734;BME280;30462;52.446;-1.930;2023-04-27T03:06:18;100336.3203;;;;
44734;BME280;30462;52.446;-1.930;2023-04-27T03:07:18;100336.7148;;;;
44734;BME280;30462;52.446;-1.930;2023-04-27T03:08:18;100338.9883;;;;
44734;BME280;30462;52.446;-1.930;2023-04-27T03:09:18;100336.9883;;;;
44734;BME280;30462;52.446;-1.930;2023-04-27T03:10:18;100331.9141;;;;
44734;BME280;30462;52.446;-1.930;2023-04-27T03:11:18;100336.7461;;;;
44734;BME280;30462;52.446;-1.930;2023-04-27T03:12:18;100333.9844;;;;
44734;BME280;30462;52.446;-1.930;2023-04-27T03:13:18;100330.1523;;;;
44734;BME280;30462;52.446;-1.930;2023-04-27T03:14:18;100328.5313;;;;
44734;BME280;30462;52.446;-1.930;2023-04-27T03:15:17;100329.9688;;;;
44734;BME280;30462;52.446;-1.930;2023-04-27T03:16:18;100332.4648;;;;
44734;BME280;30462;52.446;-1.930;2023-04-27T03:17:18;100330.8359;;;;
44734;BME280;30462;52.446;-1.930;2023-04-27T03:18:18;100330.0469;;;;
44734;BME280;30462;52.446;-1.930;2023-04-27T03:19:18;100332.6641;;;;
44734;BME280;30462;52.446;-1.930;2023-04-27T03:20:18;100332.8281;;;;
44734;BME280;30462;52.446;-1.930;2023-04-27T03:21:18;100328.1758;;;;
44734;BME280;30462;52.446;-1.930;2023-04-27T03:22:18;100330.1797;;;;
44734;BME280;30462;52.446;-1.930;2023-04-27T03:23:18;100327.2422;;;;
44734;BME280;30462;52.446;-1.930;2023-04-27T03:24:18;100323.8008;;;;
44734;BME280;30462;52.446;-1.930;2023-04-27T03:25:18;100319.8828;;;;
44734;BME280;30462;52.446;-1.930;2023-04-27T03:26:18;100319.0469;;;;
44734;BME280;30462;52.446;-1.930;2023-04-27T03:27:18;100320.1406;;;;
44734;BME280;30462;52.446;-1.930;2023-04-27T03:28:18;100318.9375;;;;
44734;BME280;30462;52.446;-1.930;2023-04-27T03:29:18;100317.8164;;;;
44734;BME280;30462;52.446;-1.930;2023-04-27T03:30:18;100317.0352;;;;
44734;BME280;30462;52.446;-1.930;2023-04-27T03:31:18;100313.332;;;;
44734;BME280;30462;52.446;-1.930;2023-04-27T03:32:18;100316.1406;;;;
44734;BME280;30462;52.446;-1.930;2023-04-27T03:33:18;100316.3828;;;;
44734;BME280;30462;52.446;-1.930;2023-04-27T03:34:18;100312.3242;;;;
44734;BME280;30462;52.446;-1.930;2023-04-27T03:35:18;100311.125;;;;
44734;BME280;30462;52.446;-1.930;2023-04-27T03:36:18;100308.9258;;;;
44734;BME280;30462;52.446;-1.930;2023-04-27T03:37:17;100306.9961;;;;
44734;BME280;30462;52.446;-1.930;2023-04-27T03:38:18;100304.4688;;;;
44734;BME280;30462;52.446;-1.930;2023-04-27T03:39:18;100303.1797;;;;
44734;BME280;30462;52.446;-1.930;2023-04-27T03:40:18;100302.5234;;;;
44734;BME280;30462;52.446;-1.930;2023-04-27T03:41:18;100299.7266;;;;
44734;BME280;30462;52.446;-1.930;2023-04-27T03:42:18;100300.0742;;;;
44734;BME280;30462;52.446;-1.930;2023-04-27T03:43:18;100296.2813;;;;
44734;BME280;30462;52.446;-1.930;2023-04-27T03:44:18;100295.8711;;;;
44734;BME280;30462;52.446;-1.930;2023-04-27T03:45:18;100291.4492;;;;
44734;BME280;30462;52.446;-1.930;2023-04-27T03:46:18;100290.7148;;;;
44734;BME280;30462;52.446;-1.930;2023-04-27T03:47:18;100299.1055;;;;
44734;BME280;30462;52.446;-1.930;2023-04-27T03:48:18;100299.4219;;;;
44734;BME280;30462;52.446;-1.930;2023-04-27T03:49:18;100301.7617;;;;
44734;BME280;30462;52.446;-1.930;2023-04-27T03:50:17;100300.2852;;;;
44734;BME280;30462;52.446;-1.930;2023-04-27T03:51:18;100303.3516;;;;
44734;BME280;30462;52.446;-1.930;2023-04-27T03:52:18;100299.4414;;;;
44734;BME280;30462;52.446;-1.930;2023-04-27T03:53:18;100298.6563;;;;
44734;BME280;30462;52.446;-1.930;2023-04-27T03:54:18;100303.0195;;;;
44734;BME280;30462;52.446;-1.930;2023-04-27T03:55:18;100300.1445;;;;
44734;BME280;30462;52.446;-1.930;2023-04-27T03:56:18;100300.3672;;;;
44734;BME280;30462;52.446;-1.930;2023-04-27T03:57:17;100297.9727;;;;
44734;BME280;30462;52.446;-1.930;2023-04-27T03:58:18;100299.7539;;;;
44734;BME280;30462;52.446;-1.930;2023-04-27T03:59:18;100294.5313;;;;
44734;BME280;30462;52.446;-1.930;2023-04-27T04:00:18;100296.5234;;;;
44734;BME280;30462;52.446;-1.930;2023-04-27T04:01:18;100290.8086;;;;
44734;BME280;30462;52.446;-1.930;2023-04-27T04:02:18;100288.6289;;;;
44734;BME280;30462;52.446;-1.930;2023-04-27T04:03:18;100290.1445;;;;
44734;BME280;30462;52.446;-1.930;2023-04-27T04:04:17;100290.0508;;;;
44734;BME280;30462;52.446;-1.930;2023-04-27T04:05:18;100287.1914;;;;
44734;BME280;30462;52.446;-1.930;2023-04-27T04:06:18;100287.0586;;;;
44734;BME280;30462;52.446;-1.930;2023-04-27T04:07:18;100284.2539;;;;
44734;BME280;30462;52.446;-1.930;2023-04-27T04:08:18;100286.6406;;;;
44734;BME280;30462;52.446;-1.930;2023-04-27T04:09:18;100283.5664;;;;
44734;BME280;30462;52.446;-1.930;2023-04-27T04:10:18;100284.8203;;;;
44734;BME280;30462;52.446;-1.930;2023-04-27T04:11:17;100289.0195;;;;
44734;BME280;30462;52.446;-1.930;2023-04-27T04:12:18;100289.6758;;;;
44734;BME280;30462;52.446;-1.930;2023-04-27T04:13:18;100288.0898;;;;
44734;BME280;30462;52.446;-1.930;2023-04-27T04:14:18;100285.375;;;;
44734;BME280;30462;52.446;-1.930;2023-04-27T04:15:18;100285.9883;;;;
44734;BME280;30462;52.446;-1.930;2023-04-27T04:16:18;100283.9688;;;;
44734;BME280;30462;52.446;-1.930;2023-04-27T04:17:18;100283.4023;;;;
44734;BME280;30462;52.446;-1.930;2023-04-27T04:18:17;100281.3398;;;;
44734;BME280;30462;52.446;-1.930;2023-04-27T04:19:18;100281.7734;;;;
44734;BME280;30462;52.446;-1.930;2023-04-27T04:20:18;100282.0508;;;;
44734;BME280;30462;52.446;-1.930;2023-04-27T04:21:18;100283.7539;;;;
44734;BME280;30462;52.446;-1.930;2023-04-27T04:22:18;100284.8906;;;;
44734;BME280;30462;52.446;-1.930;2023-04-27T04:23:18;100283.5156;;;;
44734;BME280;30462;52.446;-1.930;2023-04-27T04:24:18;100282.3711;;;;
44734;BME280;30462;52.446;-1.930;2023-04-27T04:25:18;100284.0938;;;;
44734;BME280;30462;52.446;-1.930;2023-04-27T04:26:18;100289.7383;;;;
44734;BME280;30462;52.446;-1.930;2023-04-27T04:27:18;100286.4609;;;;
44734;BME280;30462;52.446;-1.930;2023-04-27T04:28:18;100284.5352;;;;
44734;BME280;30462;52.446;-1.930;2023-04-27T04:29:18;100281.9922;;;;
44734;BME280;30462;52.446;-1.930;2023-04-27T04:30:18;100281.7383;;;;
44734;BME280;30462;52.446;-1.930;2023-04-27T04:31:17;100280.4922;;;;
44734;BME280;30462;52.446;-1.930;2023-04-27T04:32:18;100277.7383;;;;
44734;BME280;30462;52.446;-1.930;2023-04-27T04:33:18;100277.1406;;;;
44734;BME280;30462;52.446;-1.930;2023-04-27T04:34:18;100280.3203;;;;
44734;BME280;30462;52.446;-1.930;2023-04-27T04:35:18;100274.1641;;;;
44734;BME280;30462;52.446;-1.930;2023-04-27T04:36:18;100277.3672;;;;
44734;BME280;30462;52.446;-1.930;2023-04-27T04:37:18;100275.0938;;;;
44734;BME280;30462;52.446;-1.930;2023-04-27T04:38:18;100274.75;;;;
44734;BME280;30462;52.446;-1.930;2023-04-27T04:39:18;100276.5469;;;;
44734;BME280;30462;52.446;-1.930;2023-04-27T04:40:18;100274.332;;;;
44734;BME280;30462;52.446;-1.930;2023-04-27T04:41:18;100272.9141;;;;
44734;BME280;30462;52.446;-1.930;2023-04-27T04:42:18;100274.1328;;;;
44734;BME280;30462;52.446;-1.930;2023-04-27T04:43:18;100278.332;;;;
44734;BME280;30462;52.446;-1.930;2023-04-27T04:44:18;100276.668;;;;
44734;BME280;30462;52.446;-1.930;2023-04-27T04:45:18;100277.9531;;;;
44734;BME280;30462;52.446;-1.930;2023-04-27T04:46:18;100278.7148;;;;
44734;BME280;30462;52.446;-1.930;2023-04-27T04:47:18;100274.8789;;;;
44734;BME280;30462;52.446;-1.930;2023-04-27T04:48:18;100274.0625;;;;
44734;BME280;30462;52.446;-1.930;2023-04-27T04:49:18;100273.6055;;;;
44734;BME280;30462;52.446;-1.930;2023-04-27T04:50:18;100272.293;;;;
44734;BME280;30462;52.446;-1.930;2023-04-27T04:51:18;100272.4219;;;;
44734;BME280;30462;52.446;-1.930;2023-04-27T04:52:18;100270.5391;;;;
44734;BME280;30462;52.446;-1.930;2023-04-27T04:53:17;100269.1016;;;;
44734;BME280;30462;52.446;-1.930;2023-04-27T04:54:18;100269.3906;;;;
44734;BME280;30462;52.446;-1.930;2023-04-27T04:55:18;100267.3867;;;;
44734;BME280;30462;52.446;-1.930;2023-04-27T04:56:18;100269.7891;;;;
44734;BME280;30462;52.446;-1.930;2023-04-27T04:57:18;100268.7734;;;;
44734;BME280;30462;52.446;-1.930;2023-04-27T04:58:18;100269.6055;;;;
44734;BME280;30462;52.446;-1.930;2023-04-27T04:59:18;100270.4102;;;;
44734;BME280;30462;52.446;-1.930;2023-04-27T05:00:18;100264.7422;;;;
44734;BME280;30462;52.446;-1.930;2023-04-27T05:01:18;100265.2422;;;;
44734;BME280;30462;52.446;-1.930;2023-04-27T05:02:18;100263.5039;;;;
44734;BME280;30462;52.446;-1.930;2023-04-27T05:03:18;100259.3828;;;;
44734;BME280;30462;52.446;-1.930;2023-04-27T05:04:18;100258.2344;;;;
44734;BME280;30462;52.446;-1.930;2023-04-27T05:05:18;100260.6875;;;;
44734;BME280;30462;52.446;-1.930;2023-04-27T05:06:18;100257.1367;;;;
44734;BME280;30462;52.446;-1.930;2023-04-27T05:07:18;100259.7852;;;;
44734;BME280;30462;52.446;-1.930;2023-04-27T05:08:18;100261.5195;;;;
44734;BME280;30462;52.446;-1.930;2023-04-27T05:09:18;100255.6172;;;;
44734;BME280;30462;52.446;-1.930;2023-04-27T05:10:18;100258.832;;;;
44734;BME280;30462;52.446;-1.930;2023-04-27T05:11:17;100258.0977;;;;
44734;BME280;30462;52.446;-1.930;2023-04-27T05:12:18;100257.8594;;;;
44734;BME280;30462;52.446;-1.930;2023-04-27T05:13:18;100259.5547;;;;
44734;BME280;30462;52.446;-1.930;2023-04-27T05:14:18;100254.7266;;;;
44734;BME280;30462;52.446;-1.930;2023-04-27T05:15:18;100257.1758;;;;
44734;BME280;30462;52.446;-1.930;2023-04-27T05:16:18;100258.4414;;;;
44734;BME280;30462;52.446;-1.930;2023-04-27T05:17:18;100256.1992;;;;
44734;BME280;30462;52.446;-1.930;2023-04-27T05:18:18;100259.2578;;;;
44734;BME280;30462;52.446;-1.930;2023-04-27T05:19:18;100258.2344;;;;
44734;BME280;30462;52.446;-1.930;2023-04-27T05:20:18;100253.9883;;;;
44734;BME280;30462;52.446;-1.930;2023-04-27T05:21:18;100256.1875;;;;
44734;BME280;30462;52.446;-1.930;2023-04-27T05:22:18;100251.625;;;;
44734;BME280;30462;52.446;-1.930;2023-04-27T05:23:17;100253.8398;;;;
44734;BME280;30462;52.446;-1.930;2023-04-27T05:24:18;100255.5;;;;
44734;BME280;30462;52.446;-1.930;2023-04-27T05:25:18;100259.9492;;;;
44734;BME280;30462;52.446;-1.930;2023-04-27T05:26:18;100260.168;;;;
44734;BME280;30462;52.446;-1.930;2023-04-27T05:27:18;100263.9531;;;;
44734;BME280;30462;52.446;-1.930;2023-04-27T05:28:18;100267.9922;;;;
44734;BME280;30462;52.446;-1.930;2023-04-27T05:29:18;100273.3828;;;;
44734;BME280;30462;52.446;-1.930;2023-04-27T05:30:18;100275.1289;;;;
44734;BME280;30462;52.446;-1.930;2023-04-27T05:31:18;100273.3242;;;;
44734;BME280;30462;52.446;-1.930;2023-04-27T05:32:18;100270.2734;;;;
44734;BME280;30462;52.446;-1.930;2023-04-27T05:33:18;100270.3359;;;;
44734;BME280;30462;52.446;-1.930;2023-04-27T05:34:18;100268.0625;;;;
44734;BME280;30462;52.446;-1.930;2023-04-27T05:35:18;100265.0664;;;;
44734;BME280;30462;52.446;-1.930;2023-04-27T05:36:18;100265.9844;;;;
44734;BME280;30462;52.446;-1.930;2023-04-27T05:37:18;100263.7852;;;;
44734;BME280;30462;52.446;-1.930;2023-04-27T05:38:18;100257.4336;;;;
44734;BME280;30462;52.446;-1.930;2023-04-27T05:39:18;100253.6133;;;;
44734;BME280;30462;52.446;-1.930;2023-04-27T05:40:18;100251.875;;;;
44734;BME280;30462;52.446;-1.930;2023-04-27T05:41:18;100249.8477;;;;
44734;BME280;30462;52.446;-1.930;2023-04-27T05:42:18;100251.0195;;;;
44734;BME280;30462;52.446;-1.930;2023-04-27T05:43:18;100255.0898;;;;
44734;BME280;30462;52.446;-1.930;2023-04-27T05:44:18;100251.875;;;;
44734;BME280;30462;52.446;-1.930;2023-04-27T05:45:18;100253.4531;;;;
44734;BME280;30462;52.446;-1.930;2023-04-27T05:46:18;100254.3164;;;;